Time;durP1;ratioP1;P1;durP2;ratioP2;P2;SDS_P1;SDS_P2;PMS_P1;PMS_P2;Temp;Humidity;BMP_temperature;BMP_pressure;BME280_temperature;BME280_humidity;BME280_pressure;Samples;Min_cycle;Max_cycle;Signal;HPM_P1;HPM_P2
2022/10/23 00:00:35;;;;;;;60.75;26.45;;;9.60;99.90;;;;;;6180049;23;20017;-78
2022/10/23 00:03:01;;;;;;;54.60;26.33;;;9.60;99.90;;;;;;6153793;23;20114;-77
2022/10/23 00:05:28;;;;;;;63.42;27.48;;;9.60;99.90;;;;;;6129637;23;20021;-77
2022/10/23 00:07:57;;;;;;;62.33;26.88;;;9.60;99.90;;;;;;6179049;23;20021;-78
2022/10/23 00:10:25;;;;;;;60.00;27.35;;;9.60;99.90;;;;;;6154609;23;20032;-78
2022/10/23 00:12:51;;;;;;;72.25;29.73;;;9.60;99.90;;;;;;6179759;23;20460;-80
2022/10/23 00:15:19;;;;;;;76.38;30.25;;;9.60;99.90;;;;;;6178548;23;20504;-78
2022/10/23 00:17:46;;;;;;;82.13;31.00;;;9.70;99.90;;;;;;6178932;23;20024;-78
2022/10/23 00:20:12;;;;;;;69.07;29.92;;;9.60;99.90;;;;;;6153908;23;20017;-78
2022/10/23 00:22:38;;;;;;;68.10;28.80;;;9.70;99.90;;;;;;6130663;23;20028;-78
2022/10/23 00:25:05;;;;;;;65.75;29.25;;;9.70;99.90;;;;;;6179263;23;20048;-78
2022/10/23 00:27:31;;;;;;;53.88;26.75;;;9.60;99.90;;;;;;6155066;23;20028;-78
2022/10/23 00:29:57;;;;;;;60.10;27.77;;;9.70;99.90;;;;;;6155153;23;20021;-77
2022/10/23 00:32:23;;;;;;;79.47;30.75;;;9.70;99.90;;;;;;6178990;23;20318;-78
2022/10/23 00:34:49;;;;;;;70.53;30.38;;;9.60;99.90;;;;;;6130934;23;20029;-78
2022/10/23 00:37:15;;;;;;;75.13;30.17;;;9.70;99.90;;;;;;6178804;23;20306;-78
2022/10/23 00:39:40;;;;;;;64.28;28.70;;;9.80;99.90;;;;;;6155532;23;20028;-77
2022/10/23 00:42:09;;;;;;;62.42;28.45;;;9.70;99.90;;;;;;6178492;23;20524;-78
2022/10/23 00:44:35;;;;;;;63.63;28.23;;;9.60;99.90;;;;;;6155177;23;20056;-77
2022/10/23 00:47:00;;;;;;;68.03;28.75;;;9.70;99.90;;;;;;6179155;23;20467;-78
2022/10/23 00:49:27;;;;;;;63.80;27.42;;;9.60;99.90;;;;;;6179722;23;20463;-78
2022/10/23 00:51:59;;;;;;;83.40;29.95;;;9.60;99.90;;;;;;6129961;23;20167;-78
2022/10/23 00:54:30;;;;;;;69.07;29.70;;;9.50;99.90;;;;;;6154756;23;20340;-78
2022/10/23 00:56:59;;;;;;;71.07;29.30;;;9.50;99.90;;;;;;6153699;23;20032;-81
2022/10/23 00:59:25;;;;;;;67.82;29.70;;;9.60;99.90;;;;;;6152880;23;20021;-77
2022/10/23 01:01:51;;;;;;;69.85;28.65;;;9.50;99.90;;;;;;6178391;23;20013;-79
2022/10/23 01:04:17;;;;;;;55.33;26.60;;;9.50;99.90;;;;;;6153606;23;20021;-77
2022/10/23 01:07:36;;;;;;;57.70;27.52;;;9.50;99.90;;;;;;6153884;23;20100;-78
2022/10/23 01:10:05;;;;;;;72.43;29.50;;;9.40;99.90;;;;;;6122637;23;20030;-77
2022/10/23 01:12:35;;;;;;;72.55;29.83;;;9.40;99.90;;;;;;6150368;23;20468;-78
2022/10/23 01:15:04;;;;;;;55.17;26.92;;;9.50;99.90;;;;;;6153261;23;20075;-78
2022/10/23 01:17:38;;;;;;;57.38;27.30;;;9.40;99.90;;;;;;6178992;23;20017;-78
2022/10/23 01:20:25;;;;;;;61.92;27.75;;;9.50;99.90;;;;;;6177416;23;20017;-79
2022/10/23 01:23:08;;;;;;;62.65;27.95;;;9.50;99.90;;;;;;6153940;23;20025;-78
2022/10/23 01:26:08;;;;;;;72.68;29.27;;;9.50;99.90;;;;;;6154526;23;20013;-78
2022/10/23 01:28:52;;;;;;;71.47;29.33;;;9.50;99.90;;;;;;6178914;23;20107;-77
2022/10/23 01:31:27;;;;;;;67.93;28.80;;;9.40;99.90;;;;;;6153240;23;20017;-77
2022/10/23 01:34:02;;;;;;;57.88;25.85;;;9.40;99.90;;;;;;6176912;23;20017;-77
2022/10/23 01:36:30;;;;;;;47.40;22.42;;;9.30;99.90;;;;;;6179159;23;20052;-78
2022/10/23 01:39:05;;;;;;;48.17;21.95;;;9.30;99.90;;;;;;6177753;23;20021;-78
2022/10/23 01:41:45;;;;;;;73.53;23.33;;;9.30;99.90;;;;;;6153730;23;20441;-78
2022/10/23 01:44:32;;;;;;;47.67;22.20;;;9.20;99.90;;;;;;6178056;23;20017;-78
2022/10/23 01:46:59;;;;;;;50.47;22.63;;;9.10;99.90;;;;;;6154244;23;20017;-78
2022/10/23 01:49:25;;;;;;;47.63;22.65;;;9.10;99.90;;;;;;6177197;23;20028;-77
2022/10/23 01:51:55;;;;;;;49.75;22.25;;;9.00;99.90;;;;;;6129004;23;20021;-78
2022/10/23 01:54:28;;;;;;;46.78;21.88;;;9.00;99.90;;;;;;6178714;23;20013;-78
2022/10/23 01:56:55;;;;;;;51.53;22.75;;;9.00;99.90;;;;;;6179209;23;20663;-78
2022/10/23 01:59:25;;;;;;;54.92;24.77;;;9.00;99.90;;;;;;6176989;23;20027;-78
2022/10/23 02:01:55;;;;;;;49.10;25.42;;;9.00;99.90;;;;;;6178365;23;20018;-78
2022/10/23 02:04:28;;;;;;;53.97;25.52;;;9.10;99.90;;;;;;6178307;23;20368;-78
2022/10/23 02:06:54;;;;;;;52.42;24.30;;;9.20;99.90;;;;;;6154187;23;20029;-78
2022/10/23 02:09:19;;;;;;;48.30;24.40;;;9.30;99.90;;;;;;6176800;23;20180;-78
2022/10/23 02:12:06;;;;;;;79.82;31.73;;;9.30;99.90;;;;;;6153926;23;20067;-78
2022/10/23 02:14:38;;;;;;;76.75;33.08;;;9.50;99.90;;;;;;6154100;23;20044;-78
2022/10/23 02:17:26;;;;;;;64.88;29.20;;;9.60;99.90;;;;;;6179245;23;20051;-81
2022/10/23 02:20:05;;;;;;;82.65;32.88;;;9.70;99.90;;;;;;6152152;23;20035;-79
2022/10/23 02:22:37;;;;;;;76.40;33.35;;;9.70;99.90;;;;;;6181195;23;20452;-78
2022/10/23 02:25:12;;;;;;;75.32;32.63;;;9.70;99.90;;;;;;6156062;23;20487;-78
2022/10/23 02:27:54;;;;;;;72.20;32.30;;;9.70;99.90;;;;;;6156739;23;20048;-78
2022/10/23 02:30:20;;;;;;;85.38;34.08;;;9.80;99.90;;;;;;6180625;23;20032;-78
2022/10/23 02:32:49;;;;;;;89.97;35.58;;;9.70;99.90;;;;;;6155309;23;20029;-77
2022/10/23 02:35:16;;;;;;;77.10;34.10;;;9.70;99.90;;;;;;6155346;23;20021;-78
2022/10/23 02:37:42;;;;;;;82.90;34.05;;;9.80;99.90;;;;;;6155189;23;20025;-77
2022/10/23 02:40:08;;;;;;;82.95;33.92;;;9.80;99.90;;;;;;6155699;23;20025;-80
2022/10/23 02:42:53;;;;;;;74.75;33.20;;;9.80;99.90;;;;;;6130904;23;20028;-78
2022/10/23 02:45:41;;;;;;;75.00;33.20;;;9.80;99.90;;;;;;6155275;23;20028;-78
2022/10/23 02:48:13;;;;;;;92.53;36.58;;;9.80;99.90;;;;;;6156458;23;20025;-78
2022/10/23 02:51:04;;;;;;;81.57;33.55;;;9.80;99.90;;;;;;6180854;23;20043;-79
2022/10/23 02:53:38;;;;;;;98.47;37.47;;;9.80;99.90;;;;;;6154863;23;20044;-78
2022/10/23 02:56:14;;;;;;;83.38;34.95;;;9.80;99.90;;;;;;6180658;23;20020;-78
2022/10/23 02:58:58;;;;;;;88.13;34.80;;;9.80;99.90;;;;;;6155254;23;20021;-78
2022/10/23 03:01:32;;;;;;;87.70;36.63;;;9.80;99.90;;;;;;6180627;23;20021;-78
2022/10/23 03:04:01;;;;;;;99.32;37.03;;;9.80;99.90;;;;;;6180375;23;20021;-77
2022/10/23 03:06:27;;;;;;;96.47;38.15;;;9.70;99.90;;;;;;6179724;23;20418;-78
2022/10/23 03:09:19;;;;;;;90.85;36.88;;;9.70;99.90;;;;;;6156540;23;20056;-78
2022/10/23 03:11:45;;;;;;;95.18;37.33;;;9.80;99.90;;;;;;6177220;23;20103;-78
2022/10/23 03:14:12;;;;;;;84.80;34.90;;;9.70;99.90;;;;;;6156422;23;20056;-80
2022/10/23 03:16:38;;;;;;;98.10;39.55;;;9.60;99.90;;;;;;6180112;23;20013;-79
2022/10/23 03:19:04;;;;;;;82.53;36.83;;;9.70;99.90;;;;;;6156262;23;20064;-79
2022/10/23 03:21:30;;;;;;;74.68;33.90;;;9.60;99.90;;;;;;6155054;23;20120;-78
2022/10/23 03:23:55;;;;;;;81.95;36.80;;;9.50;99.90;;;;;;6131417;23;20025;-77
2022/10/23 03:26:21;;;;;;;95.57;39.88;;;9.60;99.90;;;;;;6155116;23;20052;-78
2022/10/23 03:28:47;;;;;;;112.53;44.35;;;9.50;99.90;;;;;;6131452;23;20380;-77
2022/10/23 03:31:12;;;;;;;110.07;41.45;;;9.50;99.90;;;;;;6156103;23;20032;-78
2022/10/23 03:33:38;;;;;;;91.72;37.95;;;9.40;99.90;;;;;;6131083;23;20017;-77
2022/10/23 03:36:04;;;;;;;87.32;38.53;;;9.30;99.90;;;;;;6154878;23;20373;-78
2022/10/23 03:38:30;;;;;;;98.78;41.80;;;9.40;99.90;;;;;;6155424;23;20021;-79
2022/10/23 03:40:56;;;;;;;84.78;40.08;;;9.30;99.90;;;;;;6130427;23;20024;-77
2022/10/23 03:43:22;;;;;;;94.57;41.13;;;9.40;99.90;;;;;;6180354;23;20338;-77
2022/10/23 03:45:47;;;;;;;89.78;40.63;;;9.40;99.90;;;;;;6178641;23;20096;-78
2022/10/23 03:48:13;;;;;;;96.15;42.05;;;9.50;99.90;;;;;;6179706;23;20112;-77
2022/10/23 03:50:39;;;;;;;99.80;41.53;;;9.50;99.90;;;;;;6129830;23;20329;-78
2022/10/23 03:53:05;;;;;;;90.57;38.47;;;9.50;99.90;;;;;;6107048;23;20175;-77
2022/10/23 03:55:30;;;;;;;95.03;40.17;;;9.60;99.90;;;;;;6178597;23;20155;-80
2022/10/23 03:57:56;;;;;;;106.93;42.92;;;9.60;99.90;;;;;;6153982;23;20017;-77
2022/10/23 04:00:22;;;;;;;81.72;37.90;;;9.60;99.90;;;;;;6154350;23;20017;-77
2022/10/23 04:02:48;;;;;;;96.43;40.75;;;9.60;99.90;;;;;;6154713;23;20403;-78
2022/10/23 04:05:13;;;;;;;83.82;38.33;;;9.60;99.90;;;;;;6130148;23;20025;-77
2022/10/23 04:07:39;;;;;;;82.32;39.28;;;9.50;99.90;;;;;;6178154;23;20013;-78
2022/10/23 04:10:05;;;;;;;80.60;37.90;;;9.50;99.90;;;;;;6154558;23;20392;-77
2022/10/23 04:12:31;;;;;;;85.97;40.95;;;9.50;99.90;;;;;;6154470;23;20017;-77
2022/10/23 04:14:57;;;;;;;98.90;40.72;;;9.50;99.90;;;;;;6177899;23;20113;-79
2022/10/23 04:17:22;;;;;;;79.40;36.85;;;9.40;99.90;;;;;;6127843;23;20025;-78
2022/10/23 04:19:48;;;;;;;76.03;35.53;;;9.40;99.90;;;;;;6154380;23;20021;-77
2022/10/23 04:22:14;;;;;;;91.60;38.60;;;9.40;99.90;;;;;;6155709;23;20021;-78
2022/10/23 04:24:44;;;;;;;79.57;38.13;;;9.40;99.90;;;;;;6155264;23;20021;-77
2022/10/23 04:27:10;;;;;;;79.75;37.60;;;9.40;99.90;;;;;;6180025;23;20024;-77
2022/10/23 04:29:35;;;;;;;86.35;40.28;;;9.40;99.90;;;;;;6179884;23;20029;-77
2022/10/23 04:32:01;;;;;;;83.78;36.50;;;9.40;99.90;;;;;;6180014;23;20445;-77
2022/10/23 04:34:27;;;;;;;85.15;38.45;;;9.40;99.90;;;;;;6129597;23;20079;-77
2022/10/23 04:36:52;;;;;;;90.90;38.67;;;9.40;99.90;;;;;;6154815;23;20464;-78
2022/10/23 04:39:18;;;;;;;97.43;41.80;;;9.40;99.90;;;;;;6131081;23;20105;-77
2022/10/23 04:41:44;;;;;;;83.28;37.33;;;9.40;99.90;;;;;;6154492;23;20272;-78
2022/10/23 04:44:09;;;;;;;88.28;39.00;;;9.40;99.90;;;;;;6155074;23;20021;-77
2022/10/23 04:46:35;;;;;;;88.55;39.13;;;9.40;99.90;;;;;;6154307;23;20024;-77
2022/10/23 04:49:01;;;;;;;85.68;38.42;;;9.40;99.90;;;;;;6154982;23;20083;-78
2022/10/23 04:51:27;;;;;;;90.22;40.70;;;9.40;99.90;;;;;;6154954;23;20096;-77
2022/10/23 04:53:52;;;;;;;114.00;42.55;;;9.40;99.90;;;;;;6130500;23;20021;-77
2022/10/23 04:56:18;;;;;;;89.00;38.78;;;9.40;99.90;;;;;;6154825;23;20013;-78
2022/10/23 04:58:44;;;;;;;85.28;39.13;;;9.40;99.90;;;;;;6127990;23;20237;-78
2022/10/23 05:01:10;;;;;;;82.25;39.47;;;9.50;99.90;;;;;;6154738;23;20017;-78
2022/10/23 05:03:37;;;;;;;91.60;39.85;;;9.40;99.90;;;;;;6154390;23;20025;-77
2022/10/23 05:06:03;;;;;;;85.35;36.72;;;9.40;99.90;;;;;;6179356;23;20072;-78
2022/10/23 05:08:29;;;;;;;92.63;40.60;;;9.40;99.90;;;;;;6152572;23;20039;-78
2022/10/23 05:10:55;;;;;;;82.68;37.13;;;9.40;99.90;;;;;;6129050;23;20020;-77
2022/10/23 05:13:21;;;;;;;91.32;39.70;;;9.30;99.90;;;;;;6179471;23;20020;-77
2022/10/23 05:15:49;;;;;;;79.15;36.05;;;9.30;99.90;;;;;;6129195;23;20095;-78
2022/10/23 05:18:37;;;;;;;87.18;38.67;;;9.20;99.90;;;;;;6154845;23;20024;-78
2022/10/23 05:21:09;;;;;;;82.35;36.72;;;9.20;99.90;;;;;;6179091;23;20024;-77
2022/10/23 05:23:36;;;;;;;75.63;36.72;;;9.10;99.90;;;;;;6178328;23;20079;-77
2022/10/23 05:26:03;;;;;;;88.65;38.15;;;9.10;99.90;;;;;;6177927;23;20025;-77
2022/10/23 05:28:29;;;;;;;86.35;40.22;;;9.10;99.90;;;;;;6153706;23;20025;-80
2022/10/23 05:30:58;;;;;;;65.65;33.28;;;9.10;99.90;;;;;;6178305;23;20025;-79
2022/10/23 05:33:24;;;;;;;111.88;42.20;;;9.20;99.90;;;;;;6179120;23;20028;-78
2022/10/23 05:35:50;;;;;;;79.25;36.45;;;9.10;99.90;;;;;;6152639;23;20084;-77
2022/10/23 05:38:16;;;;;;;90.93;38.72;;;9.00;99.90;;;;;;6179673;23;20056;-77
2022/10/23 05:40:42;;;;;;;89.43;39.00;;;9.00;99.90;;;;;;6151361;23;20013;-77
2022/10/23 05:43:07;;;;;;;98.82;38.45;;;9.00;99.90;;;;;;6128906;23;20028;-78
2022/10/23 05:45:33;;;;;;;81.25;36.55;;;9.00;99.90;;;;;;6176679;23;20049;-83
2022/10/23 05:47:59;;;;;;;104.07;41.78;;;9.00;99.90;;;;;;6127804;23;20103;-78
2022/10/23 05:50:25;;;;;;;111.57;43.42;;;9.00;99.90;;;;;;6128386;23;20017;-78
2022/10/23 05:52:51;;;;;;;86.47;37.65;;;9.00;99.90;;;;;;6154134;23;20840;-78
2022/10/23 05:55:16;;;;;;;84.72;38.75;;;9.00;99.90;;;;;;6129029;23;20123;-78
2022/10/23 05:57:42;;;;;;;94.13;44.22;;;8.90;99.90;;;;;;6129270;23;20021;-79
2022/10/23 06:00:09;;;;;;;101.07;44.80;;;8.90;99.90;;;;;;6153574;23;20064;-77
2022/10/23 06:02:35;;;;;;;89.88;42.47;;;9.00;99.90;;;;;;6179003;23;20100;-81
2022/10/23 06:05:01;;;;;;;99.25;43.58;;;9.00;99.90;;;;;;6129199;23;20071;-78
2022/10/23 06:07:28;;;;;;;102.05;44.08;;;9.00;99.90;;;;;;6154174;23;20483;-78
2022/10/23 06:09:54;;;;;;;101.00;43.22;;;9.00;99.90;;;;;;6177811;23;20028;-80
2022/10/23 06:12:21;;;;;;;94.97;41.97;;;9.00;99.90;;;;;;6106193;23;20374;-78
2022/10/23 06:14:47;;;;;;;91.78;41.45;;;9.00;99.90;;;;;;6153966;23;20021;-78
2022/10/23 06:17:13;;;;;;;92.85;40.70;;;9.10;99.90;;;;;;6179761;23;20017;-79
2022/10/23 06:19:38;;;;;;;108.05;41.08;;;9.10;99.90;;;;;;6153948;23;20107;-79
2022/10/23 06:22:05;;;;;;;80.45;38.30;;;9.10;99.90;;;;;;6128507;23;20076;-78
2022/10/23 06:24:30;;;;;;;94.28;41.10;;;9.20;99.90;;;;;;6152470;23;20069;-79
2022/10/23 06:26:56;;;;;;;98.95;42.75;;;9.20;99.90;;;;;;6127734;23;20096;-80
2022/10/23 06:29:22;;;;;;;109.72;45.40;;;9.20;99.90;;;;;;6153248;23;20692;-78
2022/10/23 06:31:47;;;;;;;101.25;42.40;;;9.20;99.90;;;;;;6152511;23;20020;-79
2022/10/23 06:34:14;;;;;;;95.47;41.83;;;9.20;99.90;;;;;;6153107;23;20021;-79
2022/10/23 06:36:39;;;;;;;95.00;43.78;;;9.30;99.90;;;;;;6177129;23;20021;-84
2022/10/23 06:39:06;;;;;;;94.18;40.03;;;9.30;99.90;;;;;;6151927;23;20029;-79
2022/10/23 06:41:31;;;;;;;92.88;41.65;;;9.30;99.90;;;;;;6153736;23;20106;-81
2022/10/23 06:43:57;;;;;;;86.88;39.08;;;9.30;99.90;;;;;;6154152;23;20025;-86
2022/10/23 06:46:25;;;;;;;104.80;43.17;;;9.40;99.90;;;;;;6105740;23;20467;-81
2022/10/23 06:48:52;;;;;;;104.28;41.10;;;9.40;99.90;;;;;;6154295;23;20120;-83
2022/10/23 06:51:18;;;;;;;85.82;38.40;;;9.40;99.90;;;;;;6131203;23;20445;-81
2022/10/23 06:53:44;;;;;;;105.35;43.03;;;9.40;99.90;;;;;;6176296;23;20052;-80
2022/10/23 06:56:10;;;;;;;86.30;39.33;;;9.50;99.90;;;;;;6123597;23;20016;-81
2022/10/23 06:58:37;;;;;;;90.38;40.10;;;9.70;99.90;;;;;;6122891;23;20117;-81
2022/10/23 07:01:06;;;;;;;87.60;39.05;;;9.60;99.90;;;;;;6147213;23;20016;-80
2022/10/23 07:03:33;;;;;;;98.82;41.60;;;9.60;99.90;;;;;;6146458;23;20036;-79
2022/10/23 07:06:00;;;;;;;93.45;39.63;;;9.70;99.90;;;;;;6123350;23;20029;-80
2022/10/23 07:08:26;;;;;;;94.00;39.22;;;9.70;99.90;;;;;;6174143;23;20021;-80
2022/10/23 07:10:52;;;;;;;81.28;38.45;;;9.80;99.90;;;;;;6174628;23;20151;-83
2022/10/23 07:13:18;;;;;;;92.25;39.80;;;9.80;99.90;;;;;;6154465;23;20052;-82
2022/10/23 07:15:43;;;;;;;78.63;36.47;;;9.90;99.90;;;;;;6154911;23;20159;-83
2022/10/23 07:18:15;;;;;;;95.28;39.47;;;9.90;99.90;;;;;;6180091;23;20021;-82
2022/10/23 07:20:41;;;;;;;83.78;38.78;;;10.00;99.90;;;;;;6156871;23;20607;-82
2022/10/23 07:23:10;;;;;;;79.13;38.47;;;10.00;99.90;;;;;;6155510;23;20021;-82
2022/10/23 07:25:36;;;;;;;80.88;36.28;;;10.10;99.90;;;;;;6107084;23;20551;-82
2022/10/23 07:28:03;;;;;;;86.55;38.35;;;10.10;99.90;;;;;;6155156;23;20063;-82
2022/10/23 07:30:29;;;;;;;73.88;34.85;;;10.20;99.90;;;;;;6131741;23;20013;-82
2022/10/23 07:32:54;;;;;;;79.70;35.50;;;10.20;99.90;;;;;;6130680;23;20017;-82
2022/10/23 07:35:20;;;;;;;86.82;37.20;;;10.30;99.90;;;;;;6107090;23;20058;-82
2022/10/23 07:37:47;;;;;;;82.82;36.47;;;10.40;99.90;;;;;;6130929;23;20025;-84
2022/10/23 07:40:13;;;;;;;68.32;31.55;;;10.40;99.90;;;;;;6131240;23;20042;-83
2022/10/23 07:42:39;;;;;;;75.22;33.85;;;10.50;99.90;;;;;;6180362;23;20350;-82
2022/10/23 07:45:06;;;;;;;77.80;34.17;;;10.50;99.90;;;;;;6155258;23;20124;-82
2022/10/23 07:47:32;;;;;;;66.65;31.20;;;10.60;99.90;;;;;;6156006;23;20025;-82
2022/10/23 07:49:58;;;;;;;67.45;29.50;;;10.60;99.90;;;;;;6155296;23;20032;-83
2022/10/23 07:52:23;;;;;;;71.25;31.30;;;10.80;99.90;;;;;;6131412;23;20353;-82
2022/10/23 07:54:52;;;;;;;68.55;31.30;;;10.80;99.90;;;;;;6130668;23;20021;-83
2022/10/23 07:57:19;;;;;;;66.57;31.05;;;10.90;99.90;;;;;;6180306;23;20017;-83
2022/10/23 07:59:47;;;;;;;61.30;28.33;;;11.00;99.90;;;;;;6156065;23;20009;-82
2022/10/23 08:02:14;;;;;;;60.20;28.08;;;11.00;99.90;;;;;;6179992;23;20017;-83
2022/10/23 08:04:42;;;;;;;64.18;29.73;;;11.10;99.90;;;;;;6155831;23;20024;-82
2022/10/23 08:07:09;;;;;;;58.83;29.02;;;11.10;99.90;;;;;;6129992;23;20024;-82
2022/10/23 08:09:36;;;;;;;57.97;27.85;;;11.20;99.90;;;;;;6156046;23;20175;-83
2022/10/23 08:12:02;;;;;;;65.47;30.73;;;11.30;99.90;;;;;;6130770;23;20052;-82
2022/10/23 08:14:28;;;;;;;61.17;30.05;;;11.40;99.90;;;;;;6155783;23;20024;-82
2022/10/23 08:16:55;;;;;;;60.22;29.70;;;11.50;99.90;;;;;;6129521;23;20032;-84
2022/10/23 08:19:21;;;;;;;52.60;27.25;;;11.50;99.90;;;;;;6180077;23;20021;-83
2022/10/23 08:21:47;;;;;;;61.45;29.67;;;11.60;99.90;;;;;;6130988;23;20107;-83
2022/10/23 08:24:15;;;;;;;55.50;29.00;;;11.60;99.90;;;;;;6130489;23;20032;-84
2022/10/23 08:26:41;;;;;;;51.75;27.50;;;11.80;99.90;;;;;;6131359;23;20334;-83
2022/10/23 08:29:06;;;;;;;51.90;26.58;;;11.80;99.90;;;;;;6155064;23;20017;-83
2022/10/23 08:31:32;;;;;;;49.75;26.77;;;11.90;99.90;;;;;;6131025;23;20020;-83
2022/10/23 08:33:58;;;;;;;63.60;30.20;;;11.90;99.90;;;;;;6154815;23;20480;-83
2022/10/23 08:36:26;;;;;;;47.17;24.88;;;12.10;99.90;;;;;;6155352;23;20052;-83
2022/10/23 08:38:53;;;;;;;54.97;27.23;;;12.10;99.90;;;;;;6179674;23;20356;-83
2022/10/23 08:41:31;;;;;;;44.33;23.17;;;12.20;99.90;;;;;;6155106;23;20028;-83
2022/10/23 08:44:20;;;;;;;50.55;25.65;;;12.30;99.90;;;;;;6179729;23;20028;-82
2022/10/23 08:47:10;;;;;;;41.65;23.77;;;12.30;99.90;;;;;;6179309;23;20560;-82
2022/10/23 08:49:55;;;;;;;40.55;22.67;;;12.40;99.90;;;;;;6155435;23;20060;-82
2022/10/23 08:53:02;;;;;;;35.22;21.42;;;12.50;99.90;;;;;;6155345;23;20479;-82
2022/10/23 08:56:01;;;;;;;45.72;22.45;;;12.60;99.90;;;;;;6133544;23;20028;-82
2022/10/23 08:58:35;;;;;;;40.28;22.13;;;12.70;99.90;;;;;;6143215;23;20029;-82
2022/10/23 09:01:16;;;;;;;34.15;21.40;;;12.70;99.90;;;;;;6179434;23;20017;-82
2022/10/23 09:03:43;;;;;;;33.05;20.65;;;12.80;99.90;;;;;;6155148;23;20060;-82
2022/10/23 09:06:29;;;;;;;28.92;17.45;;;12.90;99.90;;;;;;6130390;23;20016;-82
2022/10/23 09:09:06;;;;;;;31.42;18.08;;;12.90;99.90;;;;;;6179998;23;20127;-83
2022/10/23 09:11:42;;;;;;;;;;;13.00;99.90;;;;;;6179929;23;20025;-82
2022/10/23 09:14:46;;;;;;;36.45;18.88;;;13.00;99.90;;;;;;6150149;23;19995;-80
2022/10/23 09:17:36;;;;;;;29.02;17.35;;;13.10;99.90;;;;;;6148718;23;20104;-82
2022/10/23 09:20:21;;;;;;;38.83;21.33;;;13.20;99.90;;;;;;6146388;23;20193;-84
2022/10/23 09:22:49;;;;;;;33.42;18.92;;;13.30;99.90;;;;;;6172628;23;20028;-82
2022/10/23 09:25:26;;;;;;;39.53;21.92;;;13.40;99.90;;;;;;6148294;23;20028;-83
2022/10/23 09:27:56;;;;;;;27.67;20.10;;;13.50;99.90;;;;;;6148778;23;20025;-82
2022/10/23 09:30:42;;;;;;;47.28;39.95;;;13.50;99.90;;;;;;6175056;23;20460;-83
2022/10/23 09:33:27;;;;;;;27.83;18.10;;;13.60;99.90;;;;;;6152901;23;20020;-84
2022/10/23 09:36:05;;;;;;;28.73;17.60;;;13.60;99.90;;;;;;6127989;23;20052;-83
2022/10/23 09:38:47;;;;;;;27.13;14.35;;;13.70;99.90;;;;;;6173513;23;20392;-84
2022/10/23 09:41:20;;;;;;;25.90;14.52;;;13.80;99.90;;;;;;6147363;23;20021;-85
2022/10/23 09:43:46;;;;;;;32.67;16.58;;;13.90;99.90;;;;;;6175262;23;20027;-85
2022/10/23 09:46:12;;;;;;;32.00;17.40;;;13.90;99.90;;;;;;6154427;23;20013;-85
2022/10/23 09:48:41;;;;;;;24.85;14.73;;;14.00;99.90;;;;;;6127541;23;20021;-84
2022/10/23 09:51:19;;;;;;;21.10;12.48;;;14.10;99.90;;;;;;6152203;23;20021;-84
2022/10/23 09:53:56;;;;;;;18.38;11.80;;;14.20;99.90;;;;;;6179332;23;20017;-84
2022/10/23 09:56:39;;;;;;;17.92;11.60;;;14.30;99.90;;;;;;6153974;23;20060;-84
2022/10/23 09:59:21;;;;;;;22.48;13.15;;;14.30;99.90;;;;;;6153483;23;20123;-85
2022/10/23 10:01:48;;;;;;;21.38;11.75;;;14.40;99.90;;;;;;6152112;23;20445;-84
2022/10/23 10:04:14;;;;;;;18.42;11.02;;;14.40;99.90;;;;;;6148250;23;20618;-84
2022/10/23 10:06:40;;;;;;;16.05;9.40;;;14.50;99.90;;;;;;6148438;23;20021;-84
2022/10/23 10:09:16;;;;;;;15.27;8.95;;;14.50;99.90;;;;;;6125358;23;20033;-85
2022/10/23 10:11:42;;;;;;;;;;;14.60;99.90;;;;;;6149305;23;20032;-83
2022/10/23 10:15:27;;;;;;;15.43;8.50;;;14.70;99.90;;;;;;6178350;23;20336;-84
2022/10/23 10:18:20;;;;;;;14.80;7.93;;;14.80;99.90;;;;;;6036482;23;20030;-84
2022/10/23 10:20:52;;;;;;;14.20;8.57;;;15.00;99.90;;;;;;6012547;23;20097;-82
2022/10/23 10:23:20;;;;;;;16.38;8.00;;;15.10;99.90;;;;;;6141920;23;20044;-83
2022/10/23 10:25:56;;;;;;;12.05;6.93;;;15.30;99.90;;;;;;6145774;23;20408;-86
2022/10/23 10:28:25;;;;;;;23.30;13.60;;;15.40;99.90;;;;;;6146459;23;20031;-83
2022/10/23 10:31:10;;;;;;;15.88;7.68;;;15.40;99.90;;;;;;6146676;23;20118;-83
2022/10/23 10:33:51;;;;;;;12.90;7.72;;;15.60;99.90;;;;;;6147031;23;20453;-83
2022/10/23 10:36:42;;;;;;;11.68;7.45;;;15.60;99.90;;;;;;6149909;23;20017;-87
2022/10/23 10:39:18;;;;;;;13.13;7.55;;;15.70;99.90;;;;;;6122980;23;20040;-86
2022/10/23 10:41:58;;;;;;;18.35;10.60;;;15.70;99.90;;;;;;6155308;23;20025;-82
2022/10/23 10:44:51;;;;;;;12.95;7.03;;;15.80;99.90;;;;;;6177602;23;20099;-86
2022/10/23 10:47:37;;;;;;;10.65;6.35;;;15.80;99.90;;;;;;6177806;23;20031;-82
2022/10/23 10:50:25;;;;;;;16.77;6.90;;;15.80;99.90;;;;;;6155804;23;20080;-82
2022/10/23 10:52:58;;;;;;;15.13;6.75;;;15.80;99.90;;;;;;6154410;23;20259;-82
2022/10/23 10:55:28;;;;;;;12.57;6.65;;;15.80;99.90;;;;;;6179814;23;20069;-82
2022/10/23 10:58:03;;;;;;;11.05;6.50;;;15.80;99.90;;;;;;6179406;23;20017;-84
2022/10/23 11:00:32;;;;;;;23.33;6.38;;;15.80;99.90;;;;;;6177563;23;20471;-82
2022/10/23 11:03:24;;;;;;;14.82;5.72;;;15.80;99.90;;;;;;6180480;23;20116;-83
2022/10/23 11:05:52;;;;;;;8.48;6.30;;;15.80;99.90;;;;;;6179807;23;20023;-82
2022/10/23 11:08:23;;;;;;;8.38;5.15;;;15.80;99.90;;;;;;6152439;23;20025;-83
2022/10/23 11:10:56;;;;;;;13.35;5.53;;;15.90;99.90;;;;;;6152974;23;20019;-79
2022/10/23 11:13:26;;;;;;;10.77;5.65;;;15.90;99.90;;;;;;6176098;23;20021;-79
2022/10/23 11:15:58;;;;;;;8.73;5.40;;;15.90;99.90;;;;;;6177281;23;20467;-79
2022/10/23 11:18:27;;;;;;;15.25;5.85;;;15.80;99.90;;;;;;6174236;23;20023;-81
2022/10/23 11:21:18;;;;;;;12.60;5.18;;;15.80;99.90;;;;;;6149784;23;20020;-81
2022/10/23 11:23:44;;;;;;;9.57;4.90;;;15.80;99.90;;;;;;6148597;23;20027;-81
2022/10/23 11:26:37;;;;;;;11.45;5.40;;;15.80;99.90;;;;;;6178707;23;20096;-80
2022/10/23 11:29:09;;;;;;;8.10;4.80;;;15.90;99.90;;;;;;6155968;23;20413;-80
2022/10/23 11:32:01;;;;;;;8.15;4.97;;;15.80;99.90;;;;;;6179220;23;20891;-80
2022/10/23 11:34:33;;;;;;;13.15;5.15;;;15.80;99.90;;;;;;6154744;23;20025;-80
2022/10/23 11:37:03;;;;;;;9.57;5.05;;;15.70;99.90;;;;;;6155092;23;20017;-79
2022/10/23 11:39:35;;;;;;;8.77;5.00;;;15.70;99.90;;;;;;6154020;23;20084;-80
2022/10/23 11:42:03;;;;;;;10.27;5.25;;;15.70;99.90;;;;;;6177032;23;20031;-79
2022/10/23 11:44:40;;;;;;;9.07;4.90;;;15.70;99.90;;;;;;6172568;23;20017;-86
2022/10/23 11:47:30;;;;;;;11.18;4.65;;;15.60;99.90;;;;;;6144919;23;20024;-83
2022/10/23 11:50:11;;;;;;;9.73;5.00;;;15.60;99.90;;;;;;6128821;23;20072;-83
2022/10/23 11:52:51;;;;;;;10.80;5.20;;;15.60;99.90;;;;;;6149106;23;20340;-84
2022/10/23 11:55:21;;;;;;;9.45;4.63;;;15.70;99.90;;;;;;6173940;23;20444;-85
2022/10/23 11:58:05;;;;;;;10.50;4.53;;;15.70;99.90;;;;;;6154627;23;20432;-81
2022/10/23 12:00:33;;;;;;;10.27;4.38;;;15.80;99.90;;;;;;6175859;23;20357;-81
2022/10/23 12:03:00;;;;;;;10.90;5.05;;;15.80;99.90;;;;;;6130173;23;20027;-80
2022/10/23 12:05:36;;;;;;;9.38;5.10;;;15.90;99.90;;;;;;6178369;23;20032;-80
2022/10/23 12:08:06;;;;;;;11.23;5.05;;;15.90;99.90;;;;;;6151366;23;20051;-82
2022/10/23 12:10:54;;;;;;;11.65;4.75;;;15.90;99.90;;;;;;6172962;23;20024;-83
2022/10/23 12:13:44;;;;;;;10.35;5.20;;;16.00;99.90;;;;;;6173086;23;20029;-85
2022/10/23 12:16:10;;;;;;;11.48;5.28;;;16.00;99.90;;;;;;6147995;23;20067;-80
2022/10/23 12:18:49;;;;;;;8.55;4.53;;;16.00;99.90;;;;;;6172603;23;20614;-80
2022/10/23 12:21:19;;;;;;;10.43;4.50;;;16.00;99.90;;;;;;6147893;23;20661;-82
2022/10/23 12:24:16;;;;;;;13.85;4.70;;;16.00;99.90;;;;;;6171996;23;20052;-83
2022/10/23 12:26:49;;;;;;;;;;;16.10;99.90;;;;;;6149477;23;20562;-82
2022/10/23 12:29:32;;;;;;;;;;;16.00;99.90;;;;;;6148654;23;19920;-81
2022/10/23 12:32:00;;;;;;;;;;;16.10;99.90;;;;;;6173802;23;19924;-83
2022/10/23 12:34:26;;;;;;;;;;;16.10;99.90;;;;;;6149617;23;19932;-84
2022/10/23 12:37:07;;;;;;;;;;;16.10;99.90;;;;;;6155343;23;19949;-84
2022/10/23 12:39:36;;;;;;;;;;;16.20;99.90;;;;;;6180074;23;19920;-84
2022/10/23 12:42:02;;;;;;;;;;;16.20;99.90;;;;;;6179987;23;19920;-84
2022/10/23 12:44:28;;;;;;;;;;;16.20;99.90;;;;;;6130959;23;19923;-84
2022/10/23 12:46:56;;;;;;;;;;;16.20;99.90;;;;;;6180110;23;20187;-85
2022/10/23 12:49:23;;;;;;;;;;;16.10;99.90;;;;;;6155284;23;19920;-85
2022/10/23 12:51:56;;;;;;;;;;;16.20;99.90;;;;;;6155915;23;19916;-85
2022/10/23 12:54:21;;;;;;;;;;;16.10;99.90;;;;;;6180046;23;19923;-85
2022/10/23 12:56:47;;;;;;;;;;;16.10;99.90;;;;;;6153816;23;20331;-84
2022/10/23 12:59:17;;;;;;;;;;;16.10;99.90;;;;;;6155568;23;19916;-84
2022/10/23 13:01:43;;;;;;;;;;;16.10;99.90;;;;;;6154935;23;20841;-84